ADDS METAR Data INFO
IDs: Format: Raw Decoded Include TAF

Data at: 2233 UTC 22 Aug 2017

KBKS 222215Z AUTO 00000KT 10SM CLR 34/19 A2996 RMK AO1 T03380190
KBKS 222155Z AUTO 00000KT 10SM SCT055 SCT110 34/19 A2995 RMK AO1 T03390193
KBKS 222135Z AUTO 00000KT 10SM SCT055 BKN100 34/20 A2996 RMK AO1 T03420196
KBKS 222115Z AUTO 00000KT 10SM SCT055 OVC090 34/20 A2996 RMK AO1 T03430196
KBKS 222055Z AUTO 00000KT 10SM OVC055 32/22 A2997 RMK AO1 T03190219
KBKS 222035Z AUTO 00000KT 10SM OVC055 32/22 A2998 RMK AO1 T03170224
KBKS 222015Z AUTO 00000KT 10SM BKN065 OVC070 32/22 A2998 RMK AO1 T03200216
KBKS 221955Z AUTO 00000KT 10SM SCT050 OVC065 32/21 A2999 RMK AO1 T03210208
KBKS 221935Z AUTO 00000KT 10SM SCT050 SCT065 34/21 A2999 RMK AO1 T03390205
KBKS 221915Z AUTO 00000KT 10SM SCT050 SCT065 SCT090 35/20 A3000 RMK AO1 T03540203
KBKS 221855Z AUTO 00000KT 10SM BKN055 BKN065 OVC090 34/20 A3000 RMK AO1 T03390204
KBKS 221835Z AUTO 00000KT 10SM SCT050 SCT065 BKN080 34/20 A3001 RMK AO1 T03410195
KBKS 221815Z AUTO 10006KT 10SM SCT050 SCT075 35/20 A3002 RMK AO1 T03470195
KBKS 221755Z AUTO 00000KT 10SM SCT050 SCT075 34/19 A3002 RMK AO1 T03410193 10343 20235
KBKS 221735Z AUTO 00000KT 10SM SCT050 SCT060 BKN075 34/19 A3003 RMK AO1 T03410194
KBKS 221715Z AUTO 00000KT 10SM SCT050 SCT060 33/20 A3003 RMK AO1 T03300195
KBKS 221655Z AUTO 00000KT 10SM SCT043 SCT060 SCT070 33/20 A3003 RMK AO1 T03310197
KBKS 221635Z AUTO 13005KT 10SM SCT039 33/21 A3004 RMK AO1 T03300206
KBKS 221615Z AUTO 00000KT 10SM CLR 32/21 A3004 RMK AO1 T03190210
KBKS 221555Z AUTO 00000KT 10SM SCT035 SCT045 32/21 A3004 RMK AO1 T03170208
KBKS 221535Z AUTO 00000KT 10SM SCT026 SCT036 30/22 A3003 RMK AO1 T03010215
KBKS 221515Z AUTO 00000KT 10SM SCT021 SCT026 BKN034 31/22 A3003 RMK AO1 T03140222
KBKS 221455Z AUTO 00000KT 10SM SCT018 BKN023 BKN031 30/23 A3003 RMK AO1 T02990234
KBKS 221435Z AUTO 00000KT 10SM SCT019 BKN025 BKN031 29/24 A3002 RMK AO1 T02900242
KBKS 221415Z AUTO 00000KT 10SM CLR 29/25 A3002 RMK AO1 T02850245
KBKS 221355Z AUTO 00000KT 10SM CLR 28/24 A3001 RMK AO1 T02780244
KBKS 221335Z AUTO 00000KT 10SM CLR 26/24 A3001 RMK AO1 T02640241
KBKS 221315Z AUTO 00000KT 10SM CLR 25/24 A3001 RMK AO1 T02530240
KBKS 221255Z AUTO 00000KT 10SM CLR 25/24 A3000 RMK AO1 T02450236
KBKS 221235Z AUTO 00000KT 10SM CLR 24/23 A3000 RMK AO1 T02390230
KBKS 221215Z AUTO 00000KT 10SM CLR 24/23 A3000 RMK AO1 T02350226
KBKS 221155Z AUTO 00000KT 10SM CLR 24/23 A2999 RMK AO1 T02350225 10265 20235
KBKS 221135Z AUTO 00000KT 10SM CLR 24/23 A2999 RMK AO1 T02360226
KBKS 221115Z AUTO 00000KT 10SM CLR 24/23 A2999 RMK AO1 T02390228
KBKS 221055Z AUTO 00000KT 10SM CLR 24/23 A2999 RMK AO1 T02380227
KBKS 221035Z AUTO 00000KT 10SM CLR 24/23 A2999 RMK AO1 T02380226
KBKS 221015Z AUTO 00000KT 10SM CLR 24/23 A2999 RMK AO1 T02430230
KBKS 220955Z AUTO 00000KT 10SM CLR 25/23 A3000 RMK AO1 T02450230
KBKS 220935Z AUTO 00000KT 10SM CLR 25/23 A3001 RMK AO1 T02450230
KBKS 220915Z AUTO 00000KT 10SM CLR 25/23 A3001 RMK AO1 T02460230
KBKS 220855Z AUTO 00000KT 10SM CLR 26/24 A3001 RMK AO1 T02550236
KBKS 220835Z AUTO 00000KT 10SM SCT021 25/24 A3001 RMK AO1 T02540236
KBKS 220815Z AUTO 00000KT 10SM SCT021 25/24 A3002 RMK AO1 T02510235
KBKS 220755Z AUTO 00000KT 10SM CLR 25/23 A3002 RMK AO1 T02510234
KBKS 220735Z AUTO 00000KT 10SM CLR 25/24 A3002 RMK AO1 T02520235
KBKS 220715Z AUTO 00000KT 10SM CLR 26/24 A3003 RMK AO1 T02550235
KBKS 220655Z AUTO 00000KT 10SM CLR 26/24 A3003 RMK AO1 T02570235
KBKS 220635Z AUTO 00000KT 10SM CLR 26/24 A3004 RMK AO1 T02580235
KBKS 220615Z AUTO 00000KT 10SM CLR 26/24 A3004 RMK AO1 T02600235
KBKS 220555Z AUTO 00000KT 10SM CLR 27/24 A3005 RMK AO1 T02650235 10332 20265 403660236
KBKS 220535Z AUTO 00000KT 10SM CLR 27/24 A3006 RMK AO1 T02660235
KBKS 220515Z AUTO 00000KT 10SM CLR 27/24 A3005 RMK AO1 T02690235
KBKS 220455Z AUTO 00000KT 10SM CLR 27/24 A3005 RMK AO1 T02710236
KBKS 220435Z AUTO 11003KT 10SM CLR 28/24 A3005 RMK AO1 T02750236
KBKS 220415Z AUTO 11004KT 10SM CLR 28/24 A3005 RMK AO1 T02760235
KBKS 220355Z AUTO 11004KT 10SM CLR 28/24 A3004 RMK AO1 T02790235
KBKS 220335Z AUTO 11005KT 10SM CLR 28/23 A3003 RMK AO1 T02810233
KBKS 220315Z AUTO 10006KT 10SM CLR 28/23 A3003 RMK AO1 T02820233
KBKS 220255Z AUTO 11008KT 10SM CLR 28/23 A3002 RMK AO1 T02830233
KBKS 220235Z AUTO 11008KT 10SM CLR 29/23 A3002 RMK AO1 T02860231
KBKS 220215Z AUTO 11008KT 10SM CLR 29/23 A3001 RMK AO1 T02880231
KBKS 220155Z AUTO 11010KT 10SM CLR 29/23 A3000 RMK AO1 T02920226
KBKS 220135Z AUTO 10010KT 10SM CLR 30/22 A2999 RMK AO1 T02950221
KBKS 220115Z AUTO 10009KT 10SM CLR 30/22 A2999 RMK AO1 T03000221
KBKS 220055Z AUTO 10008KT 10SM CLR 31/21 A2998 RMK AO1 T03070213
KBKS 220035Z AUTO 10011G18KT 10SM CLR 32/21 A2998 RMK AO1 T03160210
KBKS 220015Z AUTO 09011G16KT 10SM CLR 32/21 A2997 RMK AO1 T03240207
KBKS 212355Z AUTO 09009G15KT 10SM CLR 33/20 A2996 RMK AO1 T03320198 10366 20332
KBKS 212335Z AUTO 10012G15KT 10SM CLR 34/19 A2996 RMK AO1 T03390194
KBKS 212315Z AUTO 09011G17KT 10SM CLR 35/19 A2996 RMK AO1 T03450194
KBKS 212255Z AUTO 08010KT 10SM CLR 35/19 A2995 RMK AO1 T03460194
KBKS 212235Z AUTO 06012G15KT 10SM SCT060 34/20 A2995 RMK AO1 T03380199
KBKS 212215Z AUTO 12009G15KT 10SM CLR 36/19 A2996 RMK AO1 T03550186
KBKS 212155Z AUTO 07011G14KT 10SM CLR 36/19 A2996 RMK AO1 T03610186
KBKS 212135Z AUTO 08011G15KT 10SM SCT060 36/18 A2996 RMK AO1 T03590184
KBKS 212115Z AUTO 06008G15KT 10SM SCT060 36/18 A2996 RMK AO1 T03550183
KBKS 212055Z AUTO 10006KT 10SM SCT060 36/19 A2996 RMK AO1 T03560186
KBKS 212035Z AUTO 00000KT 10SM SCT050 SCT070 36/19 A2997 RMK AO1 T03600193
KBKS 212015Z AUTO 00000KT 10SM SCT050 SCT070 SCT080 35/20 A2998 RMK AO1 T03450201
KBKS 211955Z AUTO 00000KT 10SM SCT050 SCT070 36/21 A2998 RMK AO1 T03600206
KBKS 211935Z AUTO 00000KT 10SM SCT050 SCT060 SCT080 35/21 A2999 RMK AO1 T03470207
KBKS 211915Z AUTO 00000KT 10SM SCT050 SCT075 35/21 A2999 RMK AO1 T03480206
KBKS 211855Z AUTO 00000KT 10SM SCT060 SCT070 SCT090 34/21 A2999 RMK AO1 T03380206
KBKS 211835Z AUTO 00000KT 10SM SCT050 34/20 A2999 RMK AO1 T03420196
KBKS 211815Z AUTO 00000KT 10SM SCT050 34/20 A3000 RMK AO1 T03410197
KBKS 211755Z AUTO 00000KT 10SM SCT049 34/20 A3000 RMK AO1 T03390203 10345 20236
KBKS 211735Z AUTO 00000KT 10SM SCT049 34/21 A3001 RMK AO1 T03430205
KBKS 211715Z AUTO 00000KT 10SM SCT047 SCT055 SCT070 34/20 A3002 RMK AO1 T03380204
KBKS 211655Z AUTO 00000KT 10SM SCT047 SCT050 33/21 A3002 RMK AO1 T03290207
KBKS 211635Z AUTO 00000KT 10SM SCT040 SCT046 33/21 A3003 RMK AO1 T03300206
KBKS 211615Z AUTO 11004KT 10SM SCT032 33/21 A3003 RMK AO1 T03260211
KBKS 211555Z AUTO 00000KT 10SM SCT032 SCT038 SCT050 32/22 A3003 RMK AO1 T03210221
KBKS 211535Z AUTO 00000KT 10SM SCT050 SCT060 31/23 A3003 RMK AO1 T03140225
KBKS 211515Z AUTO 00000KT 10SM SCT027 SCT038 BKN050 30/23 A3003 RMK AO1 T03040230
KBKS 211455Z AUTO 00000KT 10SM SCT043 SCT050 30/24 A3003 RMK AO1 T03030238
KBKS 211435Z AUTO 00000KT 10SM SCT025 30/24 A3003 RMK AO1 T02950241
KBKS 211415Z AUTO 00000KT 10SM SCT017 SCT023 29/25 A3002 RMK AO1 T02920250
KBKS 211355Z AUTO 00000KT 10SM CLR 28/25 A3002 RMK AO1 T02830251
KBKS 211335Z AUTO 00000KT 10SM CLR 27/25 A3001 RMK AO1 T02720248
KBKS 211315Z AUTO 00000KT 10SM CLR 26/25 A3001 RMK AO1 T02600245
KBKS 211255Z AUTO 00000KT 10SM SCT022 SCT027 SCT034 25/24 A3001 RMK AO1 T02490239
KBKS 211235Z AUTO 00000KT 10SM SCT018 BKN027 BKN034 24/23 A3001 RMK AO1 T02400234
KBKS 211215Z AUTO 00000KT 10SM SCT018 24/23 A3001 RMK AO1 T02360230
KBKS 211155Z AUTO 00000KT 10SM CLR 24/23 A3001 RMK AO1 T02360228 10262 20236
KBKS 211135Z AUTO 00000KT 10SM CLR 24/23 A3001 RMK AO1 T02380231
KBKS 211115Z AUTO 00000KT 10SM CLR 24/23 A3000 RMK AO1 T02400231
KBKS 211055Z AUTO 00000KT 10SM CLR 24/23 A3000 RMK AO1 T02400231
KBKS 211035Z AUTO 00000KT 10SM CLR 24/23 A3000 RMK AO1 T02410232